createdAt,value
2023-04-15T00:00:59.963Z,100.00
2023-04-15T00:03:28.812Z,100.00
2023-04-15T00:05:57.719Z,100.00
2023-04-15T00:08:26.270Z,100.00
2023-04-15T00:10:56.687Z,100.00
2023-04-15T00:13:25.294Z,100.00
2023-04-15T00:15:53.856Z,100.00
2023-04-15T00:18:22.291Z,100.00
2023-04-15T00:20:50.822Z,100.00
2023-04-15T00:23:19.628Z,100.00
2023-04-15T00:25:48.537Z,100.00
2023-04-15T00:28:18.827Z,100.00
2023-04-15T00:30:47.487Z,100.00
2023-04-15T00:33:16.601Z,100.00
2023-04-15T00:35:45.155Z,100.00
2023-04-15T00:38:14.064Z,100.00
2023-04-15T00:40:43.788Z,100.00
2023-04-15T00:43:12.366Z,100.00
2023-04-15T00:45:42.591Z,100.00
2023-04-15T00:48:12.832Z,100.00
2023-04-15T00:50:41.440Z,100.00
2023-04-15T00:53:09.935Z,100.00
2023-04-15T00:55:40.000Z,100.00
2023-04-15T00:58:08.594Z,100.00
2023-04-15T01:00:37.348Z,100.00
2023-04-15T01:03:07.857Z,100.00
2023-04-15T01:05:37.095Z,100.00
2023-04-15T01:08:06.840Z,100.00
2023-04-15T01:10:35.608Z,100.00
2023-04-15T01:13:04.847Z,100.00
2023-04-15T01:15:33.787Z,100.00
2023-04-15T01:18:03.837Z,100.00
2023-04-15T01:20:34.032Z,100.00
2023-04-15T01:23:02.962Z,100.00
2023-04-15T01:25:35.193Z,100.00
2023-04-15T01:28:05.144Z,100.00
2023-04-15T01:30:36.120Z,100.00
2023-04-15T01:33:04.833Z,100.00
2023-04-15T01:35:33.488Z,100.00
2023-04-15T01:38:07.704Z,100.00
2023-04-15T01:40:37.930Z,100.00
2023-04-15T01:43:06.462Z,100.00
2023-04-15T01:45:35.164Z,100.00
2023-04-15T01:48:06.103Z,100.00
2023-04-15T01:50:37.082Z,100.00
2023-04-15T01:53:05.611Z,100.00
2023-04-15T01:55:34.202Z,100.00
2023-04-15T01:58:04.352Z,100.00
2023-04-15T02:00:32.874Z,100.00
2023-04-15T02:03:01.647Z,100.00
2023-04-15T02:05:30.732Z,100.00
2023-04-15T02:07:59.383Z,100.00
2023-04-15T02:10:27.980Z,100.00
2023-04-15T02:12:56.680Z,100.00
2023-04-15T02:15:30.682Z,100.00
2023-04-15T02:18:01.125Z,100.00
2023-04-15T02:20:30.948Z,100.00
2023-04-15T02:23:00.050Z,100.00
2023-04-15T02:25:28.559Z,100.00
2023-04-15T02:27:59.343Z,100.00
2023-04-15T02:30:27.962Z,100.00
2023-04-15T02:32:57.947Z,100.00
2023-04-15T02:35:27.205Z,100.00
2023-04-15T02:37:56.633Z,100.00
2023-04-15T02:40:26.341Z,100.00
2023-04-15T02:42:54.860Z,100.00
2023-04-15T02:45:26.085Z,100.00
2023-04-15T02:47:54.536Z,100.00
2023-04-15T02:50:25.789Z,100.00
2023-04-15T02:52:54.290Z,100.00
2023-04-15T02:55:22.950Z,100.00
2023-04-15T02:57:51.876Z,100.00
2023-04-15T03:00:21.021Z,100.00
2023-04-15T03:02:52.662Z,100.00
2023-04-15T03:05:21.483Z,100.00
2023-04-15T03:07:54.814Z,100.00
2023-04-15T03:10:23.628Z,100.00
2023-04-15T03:12:52.343Z,100.00
2023-04-15T03:15:23.411Z,100.00
2023-04-15T03:17:54.258Z,100.00
2023-04-15T03:20:23.690Z,100.00
2023-04-15T03:22:53.826Z,100.00
2023-04-15T03:25:24.583Z,100.00
2023-04-15T03:27:53.370Z,100.00
2023-04-15T03:30:22.286Z,100.00
2023-04-15T03:32:50.970Z,100.00
2023-04-15T03:35:19.839Z,100.00
2023-04-15T03:37:49.413Z,100.00
2023-04-15T03:40:19.713Z,100.00
2023-04-15T03:42:48.418Z,100.00
2023-04-15T03:45:17.269Z,100.00
2023-04-15T03:47:46.752Z,100.00
2023-04-15T03:50:15.539Z,100.00
2023-04-15T03:52:44.218Z,100.00
2023-04-15T03:55:12.956Z,100.00
2023-04-15T03:57:43.082Z,100.00
2023-04-15T04:00:12.263Z,100.00
2023-04-15T04:02:41.305Z,100.00
2023-04-15T04:05:10.974Z,100.00
2023-04-15T04:07:39.793Z,100.00
2023-04-15T04:10:09.373Z,100.00
2023-04-15T04:12:38.027Z,100.00
2023-04-15T04:15:09.596Z,100.00
2023-04-15T04:17:38.439Z,100.00
2023-04-15T04:20:08.507Z,100.00
2023-04-15T04:22:40.243Z,100.00
2023-04-15T04:25:10.373Z,100.00
2023-04-15T04:27:39.063Z,100.00
2023-04-15T04:30:10.930Z,100.00
2023-04-15T04:32:39.719Z,100.00
2023-04-15T04:35:08.928Z,100.00
2023-04-15T04:37:37.788Z,100.00
2023-04-15T04:40:08.319Z,100.00
2023-04-15T04:42:38.660Z,100.00
2023-04-15T04:45:10.994Z,100.00
2023-04-15T04:47:39.439Z,100.00
2023-04-15T04:50:09.588Z,100.00
2023-04-15T04:52:38.285Z,100.00
2023-04-15T04:55:08.865Z,100.00
2023-04-15T04:57:37.983Z,100.00
2023-04-15T05:00:08.668Z,100.00
2023-04-15T05:02:38.952Z,100.00
2023-04-15T05:05:08.928Z,100.00
2023-04-15T05:07:37.569Z,100.00
2023-04-15T05:10:07.381Z,100.00
2023-04-15T05:12:37.707Z,100.00
2023-04-15T05:15:07.645Z,100.00
2023-04-15T05:17:36.461Z,100.00
2023-04-15T05:20:07.684Z,100.00
2023-04-15T05:22:36.167Z,100.00
2023-04-15T05:25:05.011Z,100.00
2023-04-15T05:27:33.770Z,100.00
2023-04-15T05:30:02.385Z,100.00
2023-04-15T05:32:30.978Z,100.00
2023-04-15T05:34:59.826Z,100.00
2023-04-15T05:37:29.867Z,100.00
2023-04-15T05:39:58.540Z,100.00
2023-04-15T05:42:27.115Z,100.00
2023-04-15T05:44:55.746Z,100.00
2023-04-15T05:47:24.454Z,100.00
2023-04-15T05:49:53.022Z,94.41
2023-04-15T05:52:21.578Z,100.00
2023-04-15T05:54:51.692Z,99.00
2023-04-15T05:57:20.212Z,100.00
2023-04-15T05:59:49.338Z,91.15
2023-04-15T06:02:17.999Z,100.00
2023-04-15T06:04:46.921Z,100.00
2023-04-15T06:07:15.812Z,100.00
2023-04-15T06:09:45.073Z,100.00
2023-04-15T06:12:15.126Z,90.88
2023-04-15T06:14:43.871Z,93.61
2023-04-15T06:17:15.153Z,99.50
2023-04-15T06:19:43.871Z,95.60
2023-04-15T06:22:12.393Z,100.00
2023-04-15T06:24:41.378Z,97.99
2023-04-15T06:27:10.028Z,100.00
2023-04-15T06:29:40.197Z,88.16
2023-04-15T06:32:08.952Z,94.60
2023-04-15T06:34:37.594Z,88.27
2023-04-15T06:37:06.498Z,99.95
2023-04-15T06:39:35.206Z,84.49
2023-04-15T06:42:04.852Z,87.12
2023-04-15T06:44:34.040Z,92.37
2023-04-15T06:47:04.472Z,80.97
2023-04-15T06:49:34.000Z,81.50
2023-04-15T06:52:02.571Z,96.85
2023-04-15T06:54:31.249Z,77.60
2023-04-15T06:56:59.722Z,82.67
2023-04-15T06:59:28.337Z,93.35
2023-04-15T07:01:56.990Z,82.99
2023-04-15T07:04:28.090Z,73.65
2023-04-15T07:06:57.084Z,78.12
2023-04-15T07:09:26.840Z,74.92
2023-04-15T07:11:55.734Z,77.49
2023-04-15T07:14:24.240Z,79.04
2023-04-15T07:16:53.001Z,75.19
2023-04-15T07:19:22.124Z,80.48
2023-04-15T07:21:52.125Z,78.37
2023-04-15T07:24:20.883Z,71.17
2023-04-15T07:26:49.370Z,81.60
2023-04-15T07:29:17.909Z,88.08
2023-04-15T07:31:46.551Z,71.70
2023-04-15T07:34:15.259Z,78.47
2023-04-15T07:36:43.858Z,82.21
2023-04-15T07:39:14.004Z,84.00
2023-04-15T07:41:42.575Z,79.58
2023-04-15T07:44:11.169Z,80.00
2023-04-15T07:46:40.027Z,83.66
2023-04-15T07:49:08.863Z,81.21
2023-04-15T07:51:37.769Z,79.24
2023-04-15T07:54:06.218Z,84.92
2023-04-15T07:56:36.184Z,85.02
2023-04-15T07:59:06.409Z,79.00
2023-04-15T08:01:35.033Z,81.20
2023-04-15T08:04:03.994Z,87.91
2023-04-15T08:06:33.192Z,72.91
2023-04-15T08:09:02.070Z,85.49
2023-04-15T08:11:31.711Z,82.82
2023-04-15T08:14:01.893Z,79.50
2023-04-15T08:16:30.560Z,82.53
2023-04-15T08:18:59.265Z,95.00
2023-04-15T08:21:27.908Z,88.84
2023-04-15T08:23:56.790Z,86.82
2023-04-15T08:26:25.348Z,81.27
2023-04-15T08:28:54.108Z,94.20
2023-04-15T08:31:24.250Z,92.53
2023-04-15T08:33:53.782Z,85.92
2023-04-15T08:36:22.284Z,72.96
2023-04-15T08:38:51.088Z,88.45
2023-04-15T08:41:24.008Z,76.91
2023-04-15T08:43:59.735Z,80.08
2023-04-15T08:46:30.628Z,81.53
2023-04-15T08:49:00.936Z,86.88
2023-04-15T08:51:30.616Z,74.77
2023-04-15T08:53:59.638Z,78.95
2023-04-15T08:56:29.648Z,65.56
2023-04-15T08:58:59.467Z,75.61
2023-04-15T09:01:30.282Z,77.14
2023-04-15T09:04:00.530Z,75.60
2023-04-15T09:06:29.082Z,75.14
2023-04-15T09:08:57.995Z,89.78
2023-04-15T09:11:27.315Z,91.01
2023-04-15T09:13:55.803Z,90.93
2023-04-15T09:16:24.692Z,86.53
2023-04-15T09:18:55.574Z,83.22
2023-04-15T09:21:24.891Z,82.32
2023-04-15T09:23:58.130Z,73.33
2023-04-15T09:26:35.005Z,88.24
2023-04-15T09:29:08.203Z,81.96
2023-04-15T09:31:37.033Z,82.76
2023-04-15T09:34:07.424Z,70.23
2023-04-15T09:36:54.438Z,71.94
2023-04-15T09:39:23.181Z,77.79
2023-04-15T09:42:08.143Z,64.05
2023-04-15T09:44:37.084Z,67.47
2023-04-15T09:47:05.695Z,76.65
2023-04-15T09:49:35.924Z,64.03
2023-04-15T09:52:06.548Z,62.34
2023-04-15T09:54:37.322Z,85.86
2023-04-15T09:57:10.531Z,77.54
2023-04-15T09:59:39.362Z,74.98
2023-04-15T10:02:08.736Z,73.26
2023-04-15T10:04:42.872Z,69.63
2023-04-15T10:07:13.171Z,77.74
2023-04-15T10:09:42.067Z,70.61
2023-04-15T10:12:10.933Z,65.16
2023-04-15T10:14:41.765Z,66.23
2023-04-15T10:17:13.909Z,67.44
2023-04-15T10:19:44.278Z,66.99
2023-04-15T10:22:12.848Z,68.87
2023-04-15T10:24:42.948Z,77.46
2023-04-15T10:27:12.349Z,90.00
2023-04-15T10:29:41.506Z,65.84
2023-04-15T10:32:11.209Z,86.30
2023-04-15T10:34:39.911Z,87.15
2023-04-15T10:37:12.461Z,69.23
2023-04-15T10:39:45.125Z,91.43
2023-04-15T10:42:15.600Z,73.28
2023-04-15T10:44:45.474Z,58.67
2023-04-15T10:47:15.648Z,71.59
2023-04-15T10:49:51.953Z,73.13
2023-04-15T10:52:26.084Z,88.20
2023-04-15T10:55:05.169Z,72.45
2023-04-15T10:57:37.266Z,77.95
2023-04-15T11:00:13.845Z,75.56
2023-04-15T11:02:44.575Z,70.70
2023-04-15T11:05:13.956Z,63.68
2023-04-15T11:07:51.167Z,59.88
2023-04-15T11:11:03.590Z,66.23
2023-04-15T11:13:34.589Z,55.98
2023-04-15T11:16:04.707Z,57.13
2023-04-15T11:18:35.238Z,86.46
2023-04-15T11:21:06.511Z,67.93
2023-04-15T11:23:39.258Z,58.79
2023-04-15T11:26:12.118Z,57.68
2023-04-15T11:28:42.379Z,73.00
2023-04-15T11:31:13.162Z,60.35
2023-04-15T11:33:48.435Z,61.47
2023-04-15T11:36:17.067Z,60.52
2023-04-15T11:38:48.774Z,62.12
2023-04-15T11:41:21.732Z,57.17
2023-04-15T11:43:50.654Z,55.99
2023-04-15T11:46:19.180Z,73.03
2023-04-15T11:48:48.640Z,60.35
2023-04-15T11:51:17.133Z,57.59
2023-04-15T11:53:48.605Z,63.61
2023-04-15T11:56:21.710Z,61.44
2023-04-15T11:58:53.463Z,55.69
2023-04-15T12:01:22.115Z,56.06
2023-04-15T12:03:51.062Z,57.60
2023-04-15T12:06:20.939Z,55.46
2023-04-15T12:09:01.077Z,63.56
2023-04-15T12:11:32.389Z,71.40
2023-04-15T12:14:04.925Z,68.55
2023-04-15T12:16:37.244Z,67.34
2023-04-15T12:19:25.439Z,56.56
2023-04-15T12:22:00.247Z,62.19
2023-04-15T12:24:33.465Z,68.06
2023-04-15T12:27:04.979Z,61.94
2023-04-15T12:29:34.700Z,64.90
2023-04-15T12:32:07.805Z,63.59
2023-04-15T12:34:37.904Z,68.62
2023-04-15T12:37:09.674Z,63.35
2023-04-15T12:39:41.497Z,64.63
2023-04-15T12:42:11.100Z,59.96
2023-04-15T12:44:40.528Z,54.39
2023-04-15T12:47:09.803Z,56.89
2023-04-15T12:49:38.618Z,55.47
2023-04-15T12:52:07.318Z,54.71
2023-04-15T12:54:36.379Z,51.89
2023-04-15T12:57:07.688Z,49.60
2023-04-15T12:59:36.691Z,53.00
2023-04-15T13:02:06.750Z,58.29
2023-04-15T13:04:35.414Z,54.24
2023-04-15T13:07:04.457Z,54.89
2023-04-15T13:09:33.410Z,56.23
2023-04-15T13:12:05.528Z,54.35
2023-04-15T13:14:35.764Z,58.75
2023-04-15T13:17:09.216Z,61.34
2023-04-15T13:19:38.061Z,58.11
2023-04-15T13:22:07.204Z,58.20
2023-04-15T13:24:35.865Z,64.44
2023-04-15T13:27:04.616Z,64.30
2023-04-15T13:29:34.552Z,64.02
2023-04-15T13:32:03.215Z,63.18
2023-04-15T13:34:31.863Z,67.38
2023-04-15T13:37:00.470Z,56.28
2023-04-15T13:39:29.088Z,54.95
2023-04-15T13:41:57.793Z,60.41
2023-04-15T13:44:26.382Z,55.46
2023-04-15T13:46:56.398Z,51.90
2023-04-15T13:49:24.896Z,54.47
2023-04-15T13:51:53.458Z,58.32
2023-04-15T13:54:21.886Z,54.07
2023-04-15T13:56:50.588Z,55.98
2023-04-15T13:59:19.240Z,52.07
2023-04-15T14:01:47.964Z,52.12
2023-04-15T14:04:18.118Z,55.57
2023-04-15T14:06:47.029Z,54.57
2023-04-15T14:09:16.444Z,52.37
2023-04-15T14:11:45.126Z,59.99
2023-04-15T14:14:15.226Z,62.17
2023-04-15T14:16:44.924Z,53.71
2023-04-15T14:19:13.491Z,54.48
2023-04-15T14:21:43.539Z,55.74
2023-04-15T14:24:12.500Z,62.40
2023-04-15T14:26:41.130Z,63.13
2023-04-15T14:29:09.834Z,58.87
2023-04-15T14:31:38.381Z,55.23
2023-04-15T14:34:09.702Z,64.68
2023-04-15T14:36:38.241Z,59.11
2023-04-15T14:39:08.577Z,59.40
2023-04-15T14:41:37.881Z,59.85
2023-04-15T14:44:06.433Z,62.06
2023-04-15T14:46:35.140Z,51.01
2023-04-15T14:49:04.389Z,50.57
2023-04-15T14:51:33.286Z,50.32
2023-04-15T14:54:01.999Z,51.71
2023-04-15T14:56:32.209Z,48.41
2023-04-15T14:59:00.783Z,51.40
2023-04-15T15:01:30.305Z,51.66
2023-04-15T15:03:59.089Z,53.70
2023-04-15T15:06:28.005Z,50.06
2023-04-15T15:08:56.614Z,51.12
2023-04-15T15:11:25.813Z,54.82
2023-04-15T15:13:55.930Z,58.57
2023-04-15T15:16:24.536Z,58.95
2023-04-15T15:18:53.111Z,54.50
2023-04-15T15:21:21.591Z,53.08
2023-04-15T15:23:50.246Z,55.29
2023-04-15T15:26:19.544Z,56.98
2023-04-15T15:28:49.805Z,58.71
2023-04-15T15:31:19.935Z,56.07
2023-04-15T15:33:48.489Z,58.43
2023-04-15T15:36:17.884Z,58.24
2023-04-15T15:38:46.430Z,56.09
2023-04-15T15:41:15.790Z,55.66
2023-04-15T15:43:44.429Z,54.96
2023-04-15T15:46:13.084Z,54.12
2023-04-15T15:48:43.057Z,59.48
2023-04-15T15:51:11.700Z,59.77
2023-04-15T15:53:40.369Z,60.62
2023-04-15T15:56:09.870Z,59.28
2023-04-15T15:58:38.355Z,55.13
2023-04-15T16:01:07.338Z,60.56
2023-04-15T16:03:36.084Z,57.10
2023-04-15T16:06:06.631Z,56.17
2023-04-15T16:08:35.132Z,56.30
2023-04-15T16:11:03.772Z,55.94
2023-04-15T16:13:32.373Z,55.97
2023-04-15T16:16:00.895Z,56.09
2023-04-15T16:18:29.533Z,56.52
2023-04-15T16:20:58.196Z,58.91
2023-04-15T16:23:28.358Z,68.16
2023-04-15T16:25:57.836Z,61.81
2023-04-15T16:28:27.353Z,64.06
2023-04-15T16:30:56.375Z,53.30
2023-04-15T16:33:24.950Z,56.74
2023-04-15T16:35:53.692Z,57.97
2023-04-15T16:38:22.132Z,56.92
2023-04-15T16:40:52.548Z,55.42
2023-04-15T16:43:21.103Z,58.34
2023-04-15T16:45:51.641Z,58.43
2023-04-15T16:48:20.923Z,60.86
2023-04-15T16:50:49.457Z,67.70
2023-04-15T16:53:18.046Z,59.42
2023-04-15T16:55:46.511Z,63.27
2023-04-15T16:58:16.592Z,60.63
2023-04-15T17:00:45.310Z,64.14
2023-04-15T17:03:14.034Z,66.65
2023-04-15T17:05:43.196Z,64.71
2023-04-15T17:08:11.853Z,69.87
2023-04-15T17:10:40.488Z,66.36
2023-04-15T17:13:09.150Z,73.52
2023-04-15T17:15:39.340Z,83.57
2023-04-15T17:18:08.849Z,87.37
2023-04-15T17:20:37.389Z,98.45
2023-04-15T17:23:06.066Z,92.23
2023-04-15T17:25:34.585Z,100.00
2023-04-15T17:28:03.198Z,100.00
2023-04-15T17:30:31.872Z,100.00
2023-04-15T17:33:02.292Z,94.13
2023-04-15T17:35:31.065Z,83.45
2023-04-15T17:37:59.590Z,84.85
2023-04-15T17:40:28.124Z,78.48
2023-04-15T17:42:56.444Z,75.17
2023-04-15T17:45:24.925Z,75.52
2023-04-15T17:47:53.327Z,74.24
2023-04-15T17:50:23.314Z,86.22
2023-04-15T17:52:51.691Z,85.18
2023-04-15T17:55:22.226Z,86.50
2023-04-15T17:57:50.927Z,100.00
2023-04-15T18:00:19.694Z,100.00
2023-04-15T18:02:50.037Z,100.00
2023-04-15T18:05:19.988Z,100.00
2023-04-15T18:07:52.181Z,100.00
2023-04-15T18:10:21.362Z,100.00
2023-04-15T18:12:49.981Z,100.00
2023-04-15T18:15:18.844Z,100.00
2023-04-15T18:17:47.803Z,100.00
2023-04-15T18:20:16.458Z,100.00
2023-04-15T18:22:45.144Z,100.00
2023-04-15T18:25:15.150Z,100.00
2023-04-15T18:27:43.641Z,100.00
2023-04-15T18:30:13.673Z,100.00
2023-04-15T18:32:42.867Z,100.00
2023-04-15T18:35:11.537Z,100.00
2023-04-15T18:37:40.229Z,100.00
2023-04-15T18:40:10.085Z,100.00
2023-04-15T18:42:40.070Z,100.00
2023-04-15T18:45:09.854Z,100.00
2023-04-15T18:47:38.497Z,100.00
2023-04-15T18:50:08.955Z,100.00
2023-04-15T18:52:37.633Z,100.00
2023-04-15T18:55:06.892Z,100.00
2023-04-15T18:57:36.181Z,100.00
2023-04-15T19:00:08.627Z,100.00
2023-04-15T19:02:37.252Z,100.00
2023-04-15T19:05:07.086Z,100.00
2023-04-15T19:07:36.400Z,100.00
2023-04-15T19:10:06.127Z,100.00
2023-04-15T19:12:36.711Z,100.00
2023-04-15T19:15:08.149Z,100.00
2023-04-15T19:17:36.931Z,100.00
2023-04-15T19:20:06.274Z,100.00
2023-04-15T19:22:35.248Z,100.00
2023-04-15T19:25:03.905Z,100.00
2023-04-15T19:27:32.492Z,100.00
2023-04-15T19:30:01.027Z,100.00
2023-04-15T19:32:31.085Z,100.00
2023-04-15T19:34:59.779Z,100.00
2023-04-15T19:37:28.329Z,100.00
2023-04-15T19:39:56.835Z,100.00
2023-04-15T19:42:25.396Z,100.00
2023-04-15T19:44:53.834Z,100.00
2023-04-15T19:47:22.833Z,100.00
2023-04-15T19:49:53.307Z,100.00
2023-04-15T19:52:22.567Z,100.00
2023-04-15T19:54:51.175Z,100.00
2023-04-15T19:57:19.822Z,100.00
2023-04-15T19:59:48.486Z,100.00
2023-04-15T20:02:17.238Z,100.00
2023-04-15T20:04:46.104Z,100.00
2023-04-15T20:07:16.335Z,100.00
2023-04-15T20:09:45.722Z,100.00
2023-04-15T20:12:51.498Z,100.00
2023-04-15T20:15:03.276Z,100.00
2023-04-15T20:17:34.308Z,100.00
2023-04-15T20:20:02.728Z,100.00
2023-04-15T20:22:33.190Z,100.00
2023-04-15T20:25:02.210Z,100.00
2023-04-15T20:27:30.717Z,100.00
2023-04-15T20:29:59.234Z,100.00
2023-04-15T20:32:28.619Z,100.00
2023-04-15T20:34:57.178Z,100.00
2023-04-15T20:37:25.798Z,100.00
2023-04-15T20:39:55.863Z,100.00
2023-04-15T20:42:24.604Z,100.00
2023-04-15T20:44:53.483Z,100.00
2023-04-15T20:47:22.357Z,100.00
2023-04-15T20:49:51.023Z,100.00
2023-04-15T20:52:19.647Z,100.00
2023-04-15T20:54:48.300Z,100.00
2023-04-15T20:57:18.470Z,100.00
2023-04-15T20:59:48.340Z,100.00
2023-04-15T21:02:17.066Z,100.00
2023-04-15T21:04:47.353Z,100.00
2023-04-15T21:07:16.033Z,100.00
2023-04-15T21:09:44.715Z,100.00
2023-04-15T21:12:13.361Z,100.00
2023-04-15T21:14:43.381Z,100.00
2023-04-15T21:17:12.141Z,100.00
2023-04-15T21:19:40.824Z,100.00
2023-04-15T21:22:09.453Z,100.00
2023-04-15T21:24:38.198Z,100.00
2023-04-15T21:27:06.968Z,100.00
2023-04-15T21:29:35.594Z,100.00
2023-04-15T21:32:05.814Z,100.00
2023-04-15T21:34:34.488Z,100.00
2023-04-15T21:37:03.427Z,100.00
2023-04-15T21:39:32.029Z,100.00
2023-04-15T21:42:00.812Z,92.53
2023-04-15T21:44:29.627Z,100.00
2023-04-15T21:46:58.401Z,100.00
2023-04-15T21:49:28.527Z,100.00
2023-04-15T21:52:01.393Z,93.59
2023-04-15T21:54:31.285Z,100.00
2023-04-15T21:57:00.004Z,100.00
2023-04-15T21:59:28.651Z,100.00
2023-04-15T22:01:57.581Z,92.73
2023-04-15T22:04:27.885Z,97.10
2023-04-15T22:07:01.772Z,94.43
2023-04-15T22:09:31.244Z,94.57
2023-04-15T22:12:01.184Z,99.49
2023-04-15T22:14:31.512Z,100.00
2023-04-15T22:17:00.402Z,100.00
2023-04-15T22:19:30.814Z,100.00
2023-04-15T22:22:00.160Z,100.00
2023-04-15T22:24:36.979Z,100.00
2023-04-15T22:27:08.605Z,100.00
2023-04-15T22:29:37.341Z,100.00
2023-04-15T22:32:06.142Z,100.00
2023-04-15T22:34:36.273Z,100.00
2023-04-15T22:37:04.803Z,100.00
2023-04-15T22:39:33.577Z,100.00
2023-04-15T22:42:02.658Z,100.00
2023-04-15T22:44:31.405Z,100.00
2023-04-15T22:47:00.048Z,100.00
2023-04-15T22:49:28.716Z,100.00
2023-04-15T22:51:58.770Z,100.00
2023-04-15T22:54:27.583Z,100.00
2023-04-15T22:56:56.597Z,100.00
2023-04-15T22:59:25.419Z,100.00
2023-04-15T23:01:54.204Z,100.00
2023-04-15T23:04:26.631Z,100.00
2023-04-15T23:06:56.436Z,100.00
2023-04-15T23:09:26.476Z,100.00
2023-04-15T23:11:54.960Z,100.00
2023-04-15T23:14:23.491Z,100.00
2023-04-15T23:16:51.970Z,100.00
2023-04-15T23:19:20.720Z,100.00
2023-04-15T23:21:49.353Z,100.00
2023-04-15T23:24:17.818Z,100.00
2023-04-15T23:26:47.860Z,100.00
2023-04-15T23:29:16.331Z,100.00
2023-04-15T23:31:44.889Z,100.00
2023-04-15T23:34:13.439Z,100.00
2023-04-15T23:36:41.939Z,100.00
2023-04-15T23:39:10.574Z,100.00
2023-04-15T23:41:39.278Z,100.00
2023-04-15T23:44:09.991Z,100.00
2023-04-15T23:46:38.573Z,100.00
2023-04-15T23:49:07.150Z,100.00
2023-04-15T23:51:35.849Z,100.00
2023-04-15T23:54:04.502Z,100.00
2023-04-15T23:56:32.963Z,100.00
2023-04-15T23:59:01.593Z,100.00
